createdAt,value
2022-12-11T00:01:51.361Z,44.50
2022-12-11T00:04:53.292Z,48.97
2022-12-11T00:07:55.633Z,40.47
2022-12-11T00:10:58.052Z,37.77
2022-12-11T00:14:00.268Z,35.80
2022-12-11T00:17:02.236Z,48.70
2022-12-11T00:20:05.243Z,42.00
2022-12-11T00:23:07.184Z,30.07
2022-12-11T00:26:15.577Z,34.77
2022-12-11T00:29:17.517Z,31.07
2022-12-11T00:32:19.766Z,31.57
2022-12-11T00:35:21.735Z,27.50
2022-12-11T00:38:24.258Z,30.07
2022-12-11T00:41:26.118Z,48.80
2022-12-11T00:44:28.341Z,50.93
2022-12-11T00:47:30.244Z,26.57
2022-12-11T00:50:32.530Z,26.63
2022-12-11T00:53:34.501Z,25.20
2022-12-11T00:56:36.732Z,22.70
2022-12-11T00:59:41.307Z,23.87
2022-12-11T01:02:44.099Z,42.00
2022-12-11T01:05:57.486Z,30.57
2022-12-11T01:09:18.472Z,28.63
2022-12-11T01:12:20.749Z,32.33
2022-12-11T01:15:25.808Z,26.50
2022-12-11T01:18:27.828Z,22.37
2022-12-11T01:21:29.982Z,20.23
2022-12-11T01:24:31.919Z,20.03
2022-12-11T01:27:34.107Z,20.83
2022-12-11T01:30:36.685Z,21.37
2022-12-11T01:33:39.491Z,27.30
2022-12-11T01:36:41.429Z,25.87
2022-12-11T01:39:43.586Z,22.97
2022-12-11T01:42:45.688Z,27.20
2022-12-11T01:45:49.261Z,22.90
2022-12-11T01:48:51.686Z,23.83
2022-12-11T01:52:01.664Z,22.43
2022-12-11T01:55:03.928Z,23.93
2022-12-11T01:58:07.081Z,22.70
2022-12-11T02:01:14.723Z,23.13
2022-12-11T02:04:18.565Z,35.60
2022-12-11T02:07:20.465Z,26.63
2022-12-11T02:10:28.277Z,26.20
2022-12-11T02:13:30.109Z,26.53
2022-12-11T02:16:35.356Z,24.37
2022-12-11T02:19:58.447Z,24.07
2022-12-11T02:23:16.856Z,22.60
2022-12-11T02:26:56.686Z,24.37
2022-12-11T02:30:12.308Z,24.90
2022-12-11T02:33:15.204Z,28.13
2022-12-11T02:36:18.957Z,24.13
2022-12-11T02:39:23.042Z,23.67
2022-12-11T02:42:30.614Z,26.20
2022-12-11T02:45:33.987Z,26.57
2022-12-11T02:48:37.090Z,28.57
2022-12-11T02:51:43.171Z,36.10
2022-12-11T02:54:47.233Z,24.87
2022-12-11T02:57:53.125Z,23.50
2022-12-11T03:00:55.433Z,26.50
2022-12-11T03:03:58.463Z,26.73
2022-12-11T03:07:12.070Z,24.47
2022-12-11T03:10:18.682Z,25.10
2022-12-11T03:13:22.834Z,24.43
2022-12-11T03:16:34.806Z,25.57
2022-12-11T03:19:41.922Z,20.97
2022-12-11T03:22:57.221Z,19.80
2022-12-11T03:26:25.786Z,19.90
2022-12-11T03:29:36.586Z,22.30
2022-12-11T03:32:48.762Z,21.67
2022-12-11T03:36:13.634Z,21.57
2022-12-11T03:39:32.958Z,23.40
2022-12-11T03:42:35.784Z,22.37
2022-12-11T03:45:40.264Z,23.27
2022-12-11T03:48:44.833Z,25.23
2022-12-11T03:51:50.322Z,25.77
2022-12-11T03:54:54.672Z,22.87
2022-12-11T03:57:56.991Z,22.43
2022-12-11T04:00:58.885Z,22.90
2022-12-11T04:04:01.314Z,18.87
2022-12-11T04:07:04.211Z,21.87
2022-12-11T04:10:06.744Z,20.77
2022-12-11T04:13:09.901Z,20.73
2022-12-11T04:16:12.145Z,20.50
2022-12-11T04:19:32.470Z,19.97
2022-12-11T04:22:53.318Z,20.67
2022-12-11T04:26:02.854Z,24.77
2022-12-11T04:29:05.025Z,17.40
2022-12-11T04:32:06.909Z,23.87
2022-12-11T04:35:10.986Z,21.43
2022-12-11T04:38:13.190Z,17.67
2022-12-11T04:41:16.382Z,16.23
2022-12-11T04:44:18.296Z,15.00
2022-12-11T04:47:20.500Z,12.13
2022-12-11T04:50:22.437Z,16.43
2022-12-11T04:53:25.134Z,18.33
2022-12-11T04:56:27.263Z,18.60
2022-12-11T04:59:30.004Z,28.67
2022-12-11T05:02:35.543Z,16.17
2022-12-11T05:05:37.912Z,15.43
2022-12-11T05:08:41.535Z,20.37
2022-12-11T05:11:43.788Z,20.27
2022-12-11T05:14:45.774Z,18.77
2022-12-11T05:17:47.986Z,15.57
2022-12-11T05:20:58.222Z,13.97
2022-12-11T05:24:00.393Z,15.40
2022-12-11T05:27:05.175Z,18.73
2022-12-11T05:30:08.112Z,15.57
2022-12-11T05:33:10.058Z,14.27
2022-12-11T05:36:41.473Z,16.07
2022-12-11T05:39:43.381Z,14.47
2022-12-11T05:42:45.619Z,14.10
2022-12-11T05:45:47.641Z,10.77
2022-12-11T05:48:51.830Z,21.63
2022-12-11T05:51:53.720Z,10.73
2022-12-11T05:54:56.006Z,12.83
2022-12-11T05:57:58.385Z,12.70
2022-12-11T06:01:03.150Z,13.97
2022-12-11T06:04:06.251Z,15.57
2022-12-11T06:07:08.498Z,10.13
2022-12-11T06:10:10.721Z,12.33
2022-12-11T06:13:13.461Z,15.97
2022-12-11T06:16:15.417Z,15.73
2022-12-11T06:19:18.575Z,16.90
2022-12-11T06:22:20.826Z,16.13
2022-12-11T06:25:23.843Z,15.87
2022-12-11T06:28:28.556Z,17.27
2022-12-11T06:31:41.164Z,15.80
2022-12-11T06:34:44.735Z,21.70
2022-12-11T06:37:48.145Z,16.40
2022-12-11T06:41:00.959Z,15.57
2022-12-11T06:44:03.365Z,18.13
2022-12-11T06:47:05.411Z,18.83
2022-12-11T06:50:07.883Z,15.53
2022-12-11T06:53:11.800Z,13.03
2022-12-11T06:56:15.300Z,16.23
2022-12-11T06:59:17.452Z,15.63
2022-12-11T07:02:20.449Z,16.53
2022-12-11T07:05:22.394Z,17.40
2022-12-11T07:08:24.626Z,15.93
2022-12-11T07:11:26.658Z,16.50
2022-12-11T07:14:28.837Z,16.10
2022-12-11T07:17:30.818Z,17.17
2022-12-11T07:20:33.018Z,17.80
2022-12-11T07:23:35.917Z,18.30
2022-12-11T07:26:38.330Z,19.93
2022-12-11T07:29:40.300Z,17.70
2022-12-11T07:32:42.563Z,17.17
2022-12-11T07:35:44.732Z,18.03
2022-12-11T07:38:47.069Z,17.67
2022-12-11T07:41:48.993Z,17.90
2022-12-11T07:44:51.186Z,19.00
2022-12-11T07:47:53.087Z,16.60
2022-12-11T07:50:55.247Z,16.57
2022-12-11T07:54:01.604Z,21.70
2022-12-11T07:57:03.874Z,22.37
2022-12-11T08:00:06.614Z,24.87
2022-12-11T08:03:09.016Z,27.67
2022-12-11T08:06:11.312Z,19.53
2022-12-11T08:09:20.962Z,26.10
2022-12-11T08:12:23.368Z,25.30
2022-12-11T08:15:25.593Z,27.67
2022-12-11T08:18:27.552Z,24.93
2022-12-11T08:21:29.811Z,26.40
2022-12-11T08:24:31.747Z,20.70
2022-12-11T08:27:34.035Z,26.53
2022-12-11T08:30:40.625Z,22.23
2022-12-11T08:33:43.416Z,22.43
2022-12-11T08:36:45.623Z,32.47
2022-12-11T08:39:47.834Z,22.13
2022-12-11T08:42:50.087Z,23.47
2022-12-11T08:45:52.346Z,18.63
2022-12-11T08:48:55.516Z,15.27
2022-12-11T08:51:57.715Z,22.60
2022-12-11T08:54:59.708Z,25.77
2022-12-11T08:58:01.885Z,19.17
2022-12-11T09:01:09.303Z,22.73
2022-12-11T09:04:11.562Z,23.50
2022-12-11T09:07:13.643Z,26.87
2022-12-11T09:10:16.777Z,23.87
2022-12-11T09:13:19.363Z,20.80
2022-12-11T09:16:24.239Z,17.03
2022-12-11T09:19:31.932Z,16.63
2022-12-11T09:22:34.529Z,29.03
2022-12-11T09:25:40.221Z,22.87
2022-12-11T09:28:46.669Z,18.57
2022-12-11T09:31:49.631Z,19.33
2022-12-11T09:34:52.173Z,27.23
2022-12-11T09:37:54.153Z,72.73
2022-12-11T09:40:56.695Z,47.47
2022-12-11T09:44:23.628Z,35.13
2022-12-11T09:47:33.219Z,26.10
2022-12-11T09:50:35.447Z,26.93
2022-12-11T09:53:38.330Z,31.00
2022-12-11T09:56:49.439Z,27.60
2022-12-11T10:00:12.100Z,18.33
2022-12-11T10:03:31.415Z,38.50
2022-12-11T10:06:45.544Z,26.43
2022-12-11T10:09:50.678Z,26.53
2022-12-11T10:13:15.756Z,25.50
2022-12-11T10:16:43.705Z,34.47
2022-12-11T10:19:57.209Z,23.00
2022-12-11T10:22:59.754Z,25.93
2022-12-11T10:26:32.469Z,28.47
2022-12-11T10:29:36.712Z,24.60
2022-12-11T10:32:57.050Z,23.43
2022-12-11T10:35:59.372Z,19.17
2022-12-11T10:39:02.378Z,19.57
2022-12-11T10:42:17.545Z,21.77
2022-12-11T10:45:20.069Z,22.80
2022-12-11T10:48:23.145Z,18.47
2022-12-11T10:51:31.141Z,20.53
2022-12-11T10:54:42.319Z,19.80
2022-12-11T10:57:45.784Z,21.90
2022-12-11T11:01:06.559Z,20.13
2022-12-11T11:04:20.619Z,20.00
2022-12-11T11:07:31.807Z,22.40
2022-12-11T11:10:34.618Z,20.60
2022-12-11T11:13:36.598Z,23.83
2022-12-11T11:16:41.190Z,35.57
2022-12-11T11:19:48.033Z,26.83
2022-12-11T11:22:54.385Z,23.10
2022-12-11T11:26:07.795Z,25.97
2022-12-11T11:29:33.458Z,23.33
2022-12-11T11:32:41.348Z,24.87
2022-12-11T11:35:56.342Z,21.33
2022-12-11T11:39:23.272Z,29.53
2022-12-11T11:42:57.436Z,26.07
2022-12-11T11:46:05.997Z,21.30
2022-12-11T11:49:20.810Z,29.10
2022-12-11T11:52:37.805Z,35.33
2022-12-11T11:56:19.383Z,26.40
2022-12-11T11:59:34.589Z,34.13
2022-12-11T12:02:37.747Z,30.47
2022-12-11T12:05:45.065Z,22.13
2022-12-11T12:09:28.585Z,25.70
2022-12-11T12:12:42.941Z,24.40
2022-12-11T12:15:58.538Z,25.97
2022-12-11T12:19:20.153Z,26.13
2022-12-11T12:22:44.968Z,25.77
2022-12-11T12:25:52.580Z,22.37
2022-12-11T12:29:09.323Z,22.73
2022-12-11T12:32:50.397Z,18.07
2022-12-11T12:36:26.387Z,23.30
2022-12-11T12:39:48.735Z,35.87
2022-12-11T12:43:01.978Z,31.67
2022-12-11T12:46:20.652Z,33.97
2022-12-11T12:49:29.817Z,24.23
2022-12-11T12:52:37.361Z,20.97
2022-12-11T12:55:40.030Z,20.43
2022-12-11T12:58:44.933Z,28.80
2022-12-11T13:01:52.280Z,34.37
2022-12-11T13:05:01.067Z,20.53
2022-12-11T13:08:05.975Z,33.43
2022-12-11T13:11:11.245Z,40.33
2022-12-11T13:14:16.511Z,36.47
2022-12-11T13:17:21.452Z,35.23
2022-12-11T13:20:27.257Z,32.67
2022-12-11T13:23:34.497Z,33.60
2022-12-11T13:26:36.977Z,70.03
2022-12-11T13:29:41.596Z,123.73
2022-12-11T13:33:00.843Z,77.70
2022-12-11T13:36:15.756Z,53.53
2022-12-11T13:39:27.421Z,83.87
2022-12-11T13:42:36.611Z,27.43
2022-12-11T13:45:57.770Z,30.27
2022-12-11T13:49:06.813Z,16.63
2022-12-11T13:52:18.810Z,16.00
2022-12-11T13:55:26.105Z,25.33
2022-12-11T13:58:29.445Z,25.50
2022-12-11T14:01:34.970Z,25.87
2022-12-11T14:04:38.105Z,24.77
2022-12-11T14:07:49.061Z,55.97
2022-12-11T14:10:53.828Z,21.80
2022-12-11T14:13:58.462Z,16.40
2022-12-11T14:17:01.481Z,14.87
2022-12-11T14:20:10.634Z,19.37
2022-12-11T14:23:50.990Z,14.70
2022-12-11T14:26:54.270Z,16.37
2022-12-11T14:29:56.981Z,15.77
2022-12-11T14:33:01.433Z,13.23
2022-12-11T14:36:04.537Z,13.00
2022-12-11T14:39:19.778Z,12.60
2022-12-11T14:42:25.281Z,15.30
2022-12-11T14:45:33.008Z,15.70
2022-12-11T14:48:44.697Z,15.77
2022-12-11T14:51:48.128Z,16.03
2022-12-11T14:54:58.887Z,17.13
2022-12-11T14:58:27.580Z,20.27
2022-12-11T15:01:35.224Z,19.67
2022-12-11T15:04:37.218Z,24.10
2022-12-11T15:07:41.154Z,18.30
2022-12-11T15:11:11.747Z,21.47
2022-12-11T15:14:16.498Z,20.70
2022-12-11T15:17:20.600Z,21.53
2022-12-11T15:20:29.386Z,18.43
2022-12-11T15:23:31.445Z,17.97
2022-12-11T15:26:33.566Z,14.27
2022-12-11T15:29:38.540Z,27.90
2022-12-11T15:32:40.769Z,15.20
2022-12-11T15:35:54.137Z,13.93
2022-12-11T15:38:56.538Z,21.53
2022-12-11T15:41:58.514Z,12.87
2022-12-11T15:45:01.449Z,14.07
2022-12-11T15:48:03.606Z,13.87
2022-12-11T15:51:05.987Z,14.27
2022-12-11T15:54:07.941Z,16.60
2022-12-11T15:57:41.481Z,16.77
2022-12-11T16:00:43.417Z,13.53
2022-12-11T16:03:53.793Z,15.30
2022-12-11T16:07:09.546Z,19.00
2022-12-11T16:10:17.492Z,17.30
2022-12-11T16:17:08.808Z,19.90
2022-12-11T16:20:16.962Z,24.37
2022-12-11T16:23:21.407Z,20.07
2022-12-11T16:26:27.237Z,22.63
2022-12-11T16:29:29.513Z,25.63
2022-12-11T16:32:36.995Z,22.47
2022-12-11T16:35:50.674Z,20.90
2022-12-11T16:39:02.186Z,20.47
2022-12-11T16:42:06.648Z,22.07
2022-12-11T16:45:14.289Z,20.83
2022-12-11T16:48:22.651Z,23.13
2022-12-11T16:51:35.098Z,21.67
2022-12-11T16:54:53.052Z,20.83
2022-12-11T16:57:55.254Z,16.37
2022-12-11T17:01:06.214Z,18.77
2022-12-11T17:04:11.420Z,19.60
2022-12-11T17:11:34.272Z,20.37
2022-12-11T17:14:36.852Z,21.03
2022-12-11T17:17:38.801Z,21.93
2022-12-11T17:20:44.879Z,19.63
2022-12-11T17:23:46.831Z,20.63
2022-12-11T17:26:49.061Z,26.70
2022-12-11T17:29:51.028Z,22.83
2022-12-11T17:32:53.345Z,20.70
2022-12-11T17:35:55.358Z,15.50
2022-12-11T17:38:57.884Z,19.97
2022-12-11T17:41:59.865Z,16.87
2022-12-11T17:45:02.213Z,21.87
2022-12-11T17:48:04.191Z,26.43
2022-12-11T17:51:11.669Z,19.23
2022-12-11T17:54:13.898Z,19.67
2022-12-11T17:57:16.057Z,21.57
2022-12-11T18:00:18.172Z,20.50
2022-12-11T18:03:20.913Z,21.93
2022-12-11T18:06:23.509Z,24.27
2022-12-11T18:09:27.182Z,20.77
2022-12-11T18:12:30.948Z,24.90
2022-12-11T18:15:33.341Z,22.63
2022-12-11T18:18:35.513Z,24.43
2022-12-11T18:21:41.293Z,27.03
2022-12-11T18:24:43.185Z,26.07
2022-12-11T18:27:45.493Z,27.40
2022-12-11T18:30:48.086Z,29.47
2022-12-11T18:33:50.481Z,31.50
2022-12-11T18:36:52.507Z,39.27
2022-12-11T18:39:54.829Z,62.53
2022-12-11T18:42:57.385Z,32.60
2022-12-11T18:45:59.602Z,28.93
2022-12-11T18:49:04.662Z,34.60
2022-12-11T18:52:06.886Z,31.33
2022-12-11T18:55:09.347Z,30.27
2022-12-11T18:58:13.505Z,32.20
2022-12-11T19:01:25.075Z,26.40
2022-12-11T19:04:27.886Z,22.97
2022-12-11T19:07:29.846Z,24.67
2022-12-11T19:10:32.025Z,26.13
2022-12-11T19:13:35.107Z,27.47
2022-12-11T19:16:40.895Z,24.83
2022-12-11T19:19:44.954Z,26.13
2022-12-11T19:22:47.130Z,19.83
2022-12-11T19:25:49.517Z,25.03
2022-12-11T19:28:53.313Z,22.90
2022-12-11T19:31:55.970Z,28.07
2022-12-11T19:34:58.257Z,22.53
2022-12-11T19:38:00.198Z,22.63
2022-12-11T19:41:06.878Z,22.43
2022-12-11T19:44:09.352Z,21.83
2022-12-11T19:47:11.563Z,22.30
2022-12-11T19:50:13.593Z,21.77
2022-12-11T19:53:15.743Z,20.23
2022-12-11T19:56:19.838Z,16.87
2022-12-11T19:59:22.189Z,20.77
2022-12-11T20:02:24.284Z,23.07
2022-12-11T20:05:26.539Z,19.67
2022-12-11T20:08:43.991Z,16.43
2022-12-11T20:11:47.869Z,16.80
2022-12-11T20:14:49.931Z,17.83
2022-12-11T20:17:57.047Z,17.60
2022-12-11T20:21:04.506Z,19.70
2022-12-11T20:24:07.129Z,19.40
2022-12-11T20:27:09.610Z,15.00
2022-12-11T20:30:14.147Z,17.97
2022-12-11T20:33:17.488Z,18.77
2022-12-11T20:36:21.439Z,15.00
2022-12-11T20:39:23.500Z,19.57
2022-12-11T20:42:26.164Z,14.87
2022-12-11T20:45:28.113Z,17.40
2022-12-11T20:48:30.456Z,16.03
2022-12-11T20:51:32.808Z,15.87
2022-12-11T20:54:34.970Z,20.50
2022-12-11T20:57:44.911Z,16.90
2022-12-11T21:00:48.408Z,18.23
2022-12-11T21:03:50.740Z,18.30
2022-12-11T21:07:01.165Z,18.97
2022-12-11T21:10:03.482Z,16.73
2022-12-11T21:13:05.653Z,18.03
2022-12-11T21:16:08.772Z,16.37
2022-12-11T21:19:16.676Z,19.60
2022-12-11T21:22:19.183Z,16.87
2022-12-11T21:25:21.544Z,17.53
2022-12-11T21:28:23.640Z,16.53
2022-12-11T21:31:27.298Z,18.77
2022-12-11T21:34:29.678Z,16.87
2022-12-11T21:37:31.849Z,16.43
2022-12-11T21:40:34.202Z,23.80
2022-12-11T21:43:40.048Z,21.27
2022-12-11T21:46:50.598Z,18.77
2022-12-11T21:49:52.863Z,18.07
2022-12-11T21:52:56.279Z,17.23
2022-12-11T21:56:00.045Z,18.77
2022-12-11T21:59:02.505Z,16.63
2022-12-11T22:02:04.832Z,17.73
2022-12-11T22:05:07.441Z,16.87
2022-12-11T22:08:09.594Z,16.03
2022-12-11T22:11:11.636Z,16.10
2022-12-11T22:14:15.430Z,14.67
2022-12-11T22:17:20.057Z,17.80
2022-12-11T22:20:22.249Z,17.27
2022-12-11T22:23:24.725Z,19.03
2022-12-11T22:26:27.744Z,19.13
2022-12-11T22:29:29.658Z,19.00
2022-12-11T22:32:31.832Z,19.43
2022-12-11T22:35:33.785Z,20.63
2022-12-11T22:38:36.375Z,19.87
2022-12-11T22:41:42.018Z,27.00
2022-12-11T22:44:44.177Z,25.43
2022-12-11T22:47:48.595Z,20.73
2022-12-11T22:50:56.889Z,23.87
2022-12-11T22:54:00.156Z,21.27
2022-12-11T22:57:02.332Z,22.03
2022-12-11T23:00:08.570Z,20.87
2022-12-11T23:03:11.023Z,21.57
2022-12-11T23:06:15.767Z,22.27
2022-12-11T23:09:18.037Z,26.87
2022-12-11T23:12:19.987Z,23.47
2022-12-11T23:15:22.301Z,23.37
2022-12-11T23:18:24.216Z,25.27
2022-12-11T23:21:28.287Z,23.33
2022-12-11T23:24:30.187Z,21.43
2022-12-11T23:27:32.381Z,24.93
2022-12-11T23:30:34.670Z,19.53
2022-12-11T23:33:37.815Z,19.03
2022-12-11T23:36:39.761Z,22.37
2022-12-11T23:39:42.033Z,21.70
2022-12-11T23:42:43.906Z,22.20
2022-12-11T23:45:46.773Z,22.13
2022-12-11T23:48:49.010Z,22.37
2022-12-11T23:51:51.162Z,22.87
2022-12-11T23:54:53.125Z,22.80
2022-12-11T23:57:55.543Z,20.20
